Astra — PB4187 — position and weather

sailwx.info

Track history (hours):
 
Tides and Currents Weather Stations Pressure Air Temp Water Temp Dewpoint Dewpoint Depression Visibility Wind Speed Wind Dir Waves Ship Positions

Astra

Last reported at 2015-Mar-27 11:32 UTC. Time now 2015-Mar-27 11:56 UTC.
Position N 51°54' E 004°20'.

Length 110 m; draft 2.4 m.

Type: Other ship. MMSI: 244650752.

Date/timePositionNaut miles runAvg speedWind from/ knotsBaromVisibWave heightAir tempDewpointWater temp
2015-Mar-27 11:32N 51°54' E 004°20'0 0.0
2015-Mar-27 10:33N 51°54' E 004°20'0 0.0
2015-Mar-27 09:33N 51°54' E 004°20'0 0.0
2015-Mar-27 08:33N 51°54' E 004°20'0 0.0
2015-Mar-27 07:32N 51°54' E 004°20'0 0.0
2015-Mar-27 06:33N 51°54' E 004°20'0 0.0
2015-Mar-27 05:33N 51°54' E 004°20'0 0.0
2015-Mar-27 04:32N 51°54' E 004°20'0 0.0
2015-Mar-27 03:32N 51°54' E 004°20'0 0.0
2015-Mar-27 02:33N 51°54' E 004°20'0 0.0
2015-Mar-27 01:33N 51°54' E 004°20'0 0.0
2015-Mar-27 00:33N 51°54' E 004°20'0 0.0
2015-Mar-26 23:30N 51°54' E 004°20'0 0.0
2015-Mar-26 22:33N 51°54' E 004°20'0 0.0
2015-Mar-26 21:33N 51°54' E 004°20'0 0.0
2015-Mar-26 20:33N 51°54' E 004°20'0 0.0
2015-Mar-26 19:33N 51°54' E 004°20'0 0.0
2015-Mar-26 18:33N 51°54' E 004°20'0 0.0
2015-Mar-26 17:33N 51°54' E 004°20'6 5.6
2015-Mar-26 16:34N 51°50' E 004°27'8 7.6
2015-Mar-26 15:34N 51°46' E 004°38'4 4.1
2015-Mar-26 14:32N 51°42' E 004°36'0 0.0
2015-Mar-26 13:25N 51°42' E 004°36'0 0.0
2015-Mar-26 12:27N 51°42' E 004°36'0 0.0
2015-Mar-26 10:16N 51°42' E 004°36'0 0.0
2015-Mar-26 07:12N 51°42' E 004°36'0 0.1
2015-Mar-26 06:27N 51°42' E 004°36'0 0.0
2015-Mar-26 05:33N 51°42' E 004°36'0 0.0
2015-Mar-26 04:15N 51°42' E 004°36'0 0.0
2015-Mar-26 03:23N 51°42' E 004°36'0 0.0
2015-Mar-26 02:33N 51°42' E 004°36'0 0.0
2015-Mar-26 01:33N 51°42' E 004°36'0 0.0
2015-Mar-26 00:29N 51°42' E 004°36'0 0.0
2015-Mar-25 23:33N 51°42' E 004°36'0 0.0
2015-Mar-25 22:09N 51°42' E 004°36'0 0.0
2015-Mar-25 21:31N 51°42' E 004°36'0 0.0
2015-Mar-25 20:27N 51°42' E 004°36'0 0.0
2015-Mar-25 19:32N 51°42' E 004°36'0 0.0
2015-Mar-25 18:33N 51°42' E 004°36'0 0.0
2015-Mar-25 17:32N 51°42' E 004°36'0 0.0
2015-Mar-25 12:23N 51°42' E 004°36'0 0.0
2015-Mar-25 08:19N 51°42' E 004°36'6 7.9
2015-Mar-25 07:33N 51°48' E 004°37'6 5.8
2015-Mar-25 06:33N 51°53' E 004°39'6 6.4
2015-Mar-25 05:33N 51°56' E 004°49'7 6.8
2015-Mar-25 04:33N 51°58' E 004°59'5 5.3
2015-Mar-25 03:33N 52°01' E 005°07'8 7.7
2015-Mar-25 02:33N 52°08' E 005°02'9 8.7
2015-Mar-25 01:33N 52°17' E 005°01'8 7.5
2015-Mar-25 00:34N 52°23' E 004°54'3 3.2
2015-Mar-24 23:33N 52°24' E 004°49'0 0.0
2015-Mar-24 22:33N 52°24' E 004°49'0 0.0
2015-Mar-24 21:33N 52°24' E 004°49'0 0.0
2015-Mar-24 20:33N 52°24' E 004°49'0 0.0
2015-Mar-24 19:33N 52°24' E 004°49'0 0.0
2015-Mar-24 18:33N 52°24' E 004°49'0 0.0
2015-Mar-24 17:33N 52°24' E 004°49'0 0.0
2015-Mar-24 16:33N 52°24' E 004°49'1 1.1
2015-Mar-24 15:33N 52°25' E 004°48'0 0.1
2015-Mar-24 14:33N 52°25' E 004°48'0 0.0
2015-Mar-24 13:33N 52°25' E 004°48'0 0.0
2015-Mar-24 12:33N 52°25' E 004°48'0 0.0
2015-Mar-24 11:33N 52°25' E 004°48'0 0.0
2015-Mar-24 10:33N 52°25' E 004°48'0 0.0
2015-Mar-24 09:33N 52°25' E 004°48'0 0.0
2015-Mar-24 08:33N 52°25' E 004°48'0 0.0
2015-Mar-24 07:33N 52°25' E 004°48'0 0.0
2015-Mar-24 06:33N 52°25' E 004°48'0 0.0
2015-Mar-24 05:33N 52°25' E 004°48'0 0.0
2015-Mar-24 04:33N 52°25' E 004°48'0 0.0
2015-Mar-24 03:33N 52°25' E 004°48'0 0.0
2015-Mar-24 02:33N 52°25' E 004°48'0 0.0
2015-Mar-24 01:33N 52°25' E 004°48'0 0.0
2015-Mar-24 00:33N 52°25' E 004°48'0 0.0
2015-Mar-23 23:33N 52°25' E 004°48'0 0.0
2015-Mar-23 22:33N 52°25' E 004°48'0 0.0
2015-Mar-23 21:33N 52°25' E 004°48'0 0.0
2015-Mar-23 20:33N 52°25' E 004°48'0 0.0
2015-Mar-23 19:33N 52°25' E 004°48'0 0.0
2015-Mar-23 18:33N 52°25' E 004°48'0 0.0
2015-Mar-23 17:33N 52°25' E 004°48'0 0.0
2015-Mar-23 16:33N 52°25' E 004°48'0 0.0
2015-Mar-23 15:33N 52°25' E 004°48'0 0.0
2015-Mar-23 14:33N 52°25' E 004°48'0 0.0
2015-Mar-23 13:33N 52°25' E 004°48'0 0.0
2015-Mar-23 12:33N 52°25' E 004°48'0 0.0
2015-Mar-23 11:33N 52°25' E 004°48'0 0.0
2015-Mar-23 10:33N 52°25' E 004°48'0 0.4
2015-Mar-23 09:33N 52°25' E 004°49'6 6.2
2015-Mar-23 08:33N 52°22' E 004°57'5 4.7
2015-Mar-23 07:32N 52°18' E 005°01'5 5.0
2015-Mar-23 06:34N 52°13' E 005°00'5 4.8
2015-Mar-23 05:34N 52°08' E 005°02'5 4.9
2015-Mar-23 04:34N 52°04' E 005°05'5 5.0
2015-Mar-23 03:33N 52°00' E 005°11'5 5.2
2015-Mar-23 02:34N 51°58' E 005°18'3 3.4
2015-Mar-23 01:34N 51°57' E 005°23'4 3.9
2015-Mar-23 00:34N 51°54' E 005°28'8 8.1
2015-Mar-22 23:33N 51°54' E 005°41'24 7.9
2015-Mar-22 20:29N 51°48' E 006°19'32 3.6
2015-Mar-22 11:32N 51°32' E 007°03'0 0.0
2015-Mar-22 10:33N 51°32' E 007°03'0 0.0
2015-Mar-22 09:27N 51°32' E 007°03'0 0.0
2015-Mar-22 08:32N 51°32' E 007°03'0 0.0
2015-Mar-22 07:33N 51°32' E 007°03'0 0.0
2015-Mar-22 06:33N 51°32' E 007°03'0 0.0
2015-Mar-22 05:33N 51°32' E 007°03'0 0.0
2015-Mar-22 04:34N 51°32' E 007°03'0 0.0
2015-Mar-22 03:33N 51°32' E 007°03'0 0.0
2015-Mar-22 02:33N 51°32' E 007°03'0 0.0
2015-Mar-22 01:34N 51°32' E 007°03'4 1.9
2015-Mar-21 23:33N 51°30' E 006°57'0 0.0
2015-Mar-21 22:33N 51°30' E 006°57'0 0.0
2015-Mar-21 21:34N 51°30' E 006°57'0 0.0
2015-Mar-21 20:34N 51°30' E 006°57'0 0.0
2015-Mar-21 19:33N 51°30' E 006°57'0 0.0
2015-Mar-21 18:34N 51°30' E 006°57'0 0.0
2015-Mar-21 17:33N 51°30' E 006°57'0 0.0
2015-Mar-21 16:33N 51°30' E 006°57'0 0.0
2015-Mar-21 15:33N 51°30' E 006°57'0 0.0
2015-Mar-21 14:34N 51°30' E 006°57'0 0.0
2015-Mar-21 13:34N 51°30' E 006°57'0 0.0
2015-Mar-21 12:33N 51°30' E 006°57'0 0.0
2015-Mar-21 11:34N 51°30' E 006°57'0 0.0
2015-Mar-21 10:34N 51°30' E 006°57'0 0.0
2015-Mar-21 09:34N 51°30' E 006°57'0 0.0
2015-Mar-21 08:34N 51°30' E 006°57'0 0.0
2015-Mar-21 07:33N 51°30' E 006°57'0 0.0
2015-Mar-21 06:33N 51°30' E 006°57'0 0.0
2015-Mar-21 05:34N 51°30' E 006°57'0 0.0
2015-Mar-21 04:34N 51°30' E 006°57'0 0.0
2015-Mar-21 03:33N 51°30' E 006°57'0 0.0
2015-Mar-21 02:33N 51°30' E 006°57'0 0.0
2015-Mar-21 01:33N 51°30' E 006°57'0 0.0
2015-Mar-21 00:33N 51°30' E 006°57'0 0.0
2015-Mar-20 23:33N 51°30' E 006°57'0 0.0
2015-Mar-20 22:34N 51°30' E 006°57'0 0.0
2015-Mar-20 21:34N 51°30' E 006°57'0 0.0
2015-Mar-20 20:33N 51°30' E 006°57'0 0.0
2015-Mar-20 19:34N 51°30' E 006°57'0 0.0
2015-Mar-20 18:33N 51°30' E 006°57'0 0.0
2015-Mar-20 17:34N 51°30' E 006°57'0 0.0
2015-Mar-20 16:34N 51°30' E 006°57'0 0.0
2015-Mar-20 15:34N 51°30' E 006°57'0 0.0
2015-Mar-20 14:34N 51°30' E 006°57'0 0.0
2015-Mar-20 13:33N 51°30' E 006°57'0 0.0
2015-Mar-20 12:34N 51°30' E 006°57'0 0.0
2015-Mar-20 11:33N 51°30' E 006°57'0 0.0
2015-Mar-20 10:33N 51°30' E 006°57'0 0.0
2015-Mar-20 09:33N 51°30' E 006°57'0 0.0
2015-Mar-20 08:34N 51°30' E 006°57'0 0.0
2015-Mar-20 07:33N 51°30' E 006°57'0 0.0
2015-Mar-20 06:32N 51°30' E 006°57'0 0.0
2015-Mar-20 05:33N 51°30' E 006°57'0 0.0
2015-Mar-20 04:33N 51°30' E 006°57'0 0.0
2015-Mar-20 03:33N 51°30' E 006°57'0 0.0
2015-Mar-20 02:33N 51°30' E 006°57'0 0.0
2015-Mar-20 01:33N 51°30' E 006°57'0 0.0
2015-Mar-20 00:33N 51°30' E 006°57'0 0.0
2015-Mar-19 23:33N 51°30' E 006°57'0 0.0
2015-Mar-19 22:33N 51°30' E 006°57'0 0.1
2015-Mar-19 21:32N 51°30' E 006°58'0 0.0
2015-Mar-19 20:34N 51°30' E 006°58'0 0.0
2015-Mar-19 19:32N 51°30' E 006°58'0 0.0
2015-Mar-19 17:24N 51°30' E 006°58'0 0.0
2015-Mar-19 15:27N 51°30' E 006°58'0 0.0
2015-Mar-19 13:12N 51°30' E 006°58'0 0.1
2015-Mar-19 11:32N 51°30' E 006°57'50 3.1
2015-Mar-18 19:26N 51°53' E 005°46'7 6.0
2015-Mar-18 18:18N 51°54' E 005°35'5 6.1
2015-Mar-18 17:33N 51°53' E 005°28'6 6.0
2015-Mar-18 16:33N 51°48' E 005°22'5 5.4
2015-Mar-18 15:33N 51°49' E 005°13'6 6.4
2015-Mar-18 14:33N 51°49' E 005°03'8 8.0
2015-Mar-18 13:34N 51°49' E 004°50'5 4.6
2015-Mar-18 12:33N 51°49' E 004°43'0 0.0
2015-Mar-18 11:34N 51°49' E 004°43'0 0.0
2015-Mar-18 10:33N 51°49' E 004°43'0 0.0
2015-Mar-18 09:33N 51°49' E 004°43'0 0.0
2015-Mar-18 08:33N 51°49' E 004°43'0 0.0
2015-Mar-18 07:33N 51°49' E 004°43'0 0.0
2015-Mar-18 06:34N 51°49' E 004°43'1 0.9
2015-Mar-18 05:34N 51°49' E 004°41'2 2.4
2015-Mar-18 04:33N 51°48' E 004°38'5 5.4
2015-Mar-18 03:32N 51°42' E 004°35'7 6.8
2015-Mar-18 02:32N 51°41' E 004°24'6 6.1
2015-Mar-18 01:33N 51°39' E 004°16'4 3.9
2015-Mar-18 00:29N 51°40' E 004°10'5 4.9
2015-Mar-17 23:32N 51°37' E 004°03'6 6.4
2015-Mar-17 22:34N 51°31' E 004°01'4 4.3
2015-Mar-17 21:33N 51°27' E 004°01'9 8.5
2015-Mar-17 20:33N 51°23' E 003°49'6 5.5
2015-Mar-17 19:33N 51°27' E 003°43'0 0.0
2015-Mar-17 18:33N 51°27' E 003°43'0 0.0
2015-Mar-17 17:33N 51°27' E 003°43'0 0.2
2015-Mar-17 16:34N 51°27' E 003°43'0 0.0
2015-Mar-17 15:33N 51°27' E 003°43'0 0.0
2015-Mar-17 14:33N 51°27' E 003°43'0 0.0
2015-Mar-17 13:34N 51°27' E 003°43'0 0.0
2015-Mar-17 12:34N 51°27' E 003°43'0 0.0
2015-Mar-17 11:33N 51°27' E 003°43'  
Track history (hours):
 
Tides and Currents Weather Stations Pressure Air Temp Water Temp Dewpoint Dewpoint Depression Visibility Wind Speed Wind Dir Waves Ship Positions

Astra

Last reported at 2015-Mar-27 11:32 UTC. Time now 2015-Mar-27 11:56 UTC.
Position N 51°54' E 004°20'.

Length 110 m; draft 2.4 m.

Type: Other ship. MMSI: 244650752.

Date/timePositionNaut miles runAvg speedWind from/ knotsBaromVisibWave heightAir tempDewpointWater temp
2015-Mar-27 11:32N 51°54' E 004°20'0 0.0
2015-Mar-27 10:33N 51°54' E 004°20'0 0.0
2015-Mar-27 09:33N 51°54' E 004°20'0 0.0
2015-Mar-27 08:33N 51°54' E 004°20'0 0.0
2015-Mar-27 07:32N 51°54' E 004°20'0 0.0
2015-Mar-27 06:33N 51°54' E 004°20'0 0.0
2015-Mar-27 05:33N 51°54' E 004°20'0 0.0
2015-Mar-27 04:32N 51°54' E 004°20'0 0.0
2015-Mar-27 03:32N 51°54' E 004°20'0 0.0
2015-Mar-27 02:33N 51°54' E 004°20'0 0.0
2015-Mar-27 01:33N 51°54' E 004°20'0 0.0
2015-Mar-27 00:33N 51°54' E 004°20'0 0.0
2015-Mar-26 23:30N 51°54' E 004°20'0 0.0
2015-Mar-26 22:33N 51°54' E 004°20'0 0.0
2015-Mar-26 21:33N 51°54' E 004°20'0 0.0
2015-Mar-26 20:33N 51°54' E 004°20'0 0.0
2015-Mar-26 19:33N 51°54' E 004°20'0 0.0
2015-Mar-26 18:33N 51°54' E 004°20'0 0.0
2015-Mar-26 17:33N 51°54' E 004°20'6 5.6
2015-Mar-26 16:34N 51°50' E 004°27'8 7.6
2015-Mar-26 15:34N 51°46' E 004°38'4 4.1
2015-Mar-26 14:32N 51°42' E 004°36'0 0.0
2015-Mar-26 13:25N 51°42' E 004°36'0 0.0
2015-Mar-26 12:27N 51°42' E 004°36'0 0.0
2015-Mar-26 10:16N 51°42' E 004°36'0 0.0
2015-Mar-26 07:12N 51°42' E 004°36'0 0.1
2015-Mar-26 06:27N 51°42' E 004°36'0 0.0
2015-Mar-26 05:33N 51°42' E 004°36'0 0.0
2015-Mar-26 04:15N 51°42' E 004°36'0 0.0
2015-Mar-26 03:23N 51°42' E 004°36'0 0.0
2015-Mar-26 02:33N 51°42' E 004°36'0 0.0
2015-Mar-26 01:33N 51°42' E 004°36'0 0.0
2015-Mar-26 00:29N 51°42' E 004°36'0 0.0
2015-Mar-25 23:33N 51°42' E 004°36'0 0.0
2015-Mar-25 22:09N 51°42' E 004°36'0 0.0
2015-Mar-25 21:31N 51°42' E 004°36'0 0.0
2015-Mar-25 20:27N 51°42' E 004°36'0 0.0
2015-Mar-25 19:32N 51°42' E 004°36'0 0.0
2015-Mar-25 18:33N 51°42' E 004°36'0 0.0
2015-Mar-25 17:32N 51°42' E 004°36'0 0.0
2015-Mar-25 12:23N 51°42' E 004°36'0 0.0
2015-Mar-25 08:19N 51°42' E 004°36'6 7.9
2015-Mar-25 07:33N 51°48' E 004°37'6 5.8
2015-Mar-25 06:33N 51°53' E 004°39'6 6.4
2015-Mar-25 05:33N 51°56' E 004°49'7 6.8
2015-Mar-25 04:33N 51°58' E 004°59'5 5.3
2015-Mar-25 03:33N 52°01' E 005°07'8 7.7
2015-Mar-25 02:33N 52°08' E 005°02'9 8.7
2015-Mar-25 01:33N 52°17' E 005°01'8 7.5
2015-Mar-25 00:34N 52°23' E 004°54'3 3.2
2015-Mar-24 23:33N 52°24' E 004°49'0 0.0
2015-Mar-24 22:33N 52°24' E 004°49'0 0.0
2015-Mar-24 21:33N 52°24' E 004°49'0 0.0
2015-Mar-24 20:33N 52°24' E 004°49'0 0.0
2015-Mar-24 19:33N 52°24' E 004°49'0 0.0
2015-Mar-24 18:33N 52°24' E 004°49'0 0.0
2015-Mar-24 17:33N 52°24' E 004°49'0 0.0
2015-Mar-24 16:33N 52°24' E 004°49'1 1.1
2015-Mar-24 15:33N 52°25' E 004°48'0 0.1
2015-Mar-24 14:33N 52°25' E 004°48'0 0.0
2015-Mar-24 13:33N 52°25' E 004°48'0 0.0
2015-Mar-24 12:33N 52°25' E 004°48'0 0.0
2015-Mar-24 11:33N 52°25' E 004°48'0 0.0
2015-Mar-24 10:33N 52°25' E 004°48'0 0.0
2015-Mar-24 09:33N 52°25' E 004°48'0 0.0
2015-Mar-24 08:33N 52°25' E 004°48'0 0.0
2015-Mar-24 07:33N 52°25' E 004°48'0 0.0
2015-Mar-24 06:33N 52°25' E 004°48'0 0.0
2015-Mar-24 05:33N 52°25' E 004°48'0 0.0
2015-Mar-24 04:33N 52°25' E 004°48'0 0.0
2015-Mar-24 03:33N 52°25' E 004°48'0 0.0
2015-Mar-24 02:33N 52°25' E 004°48'0 0.0
2015-Mar-24 01:33N 52°25' E 004°48'0 0.0
2015-Mar-24 00:33N 52°25' E 004°48'0 0.0
2015-Mar-23 23:33N 52°25' E 004°48'0 0.0
2015-Mar-23 22:33N 52°25' E 004°48'0 0.0
2015-Mar-23 21:33N 52°25' E 004°48'0 0.0
2015-Mar-23 20:33N 52°25' E 004°48'0 0.0
2015-Mar-23 19:33N 52°25' E 004°48'0 0.0
2015-Mar-23 18:33N 52°25' E 004°48'0 0.0
2015-Mar-23 17:33N 52°25' E 004°48'0 0.0
2015-Mar-23 16:33N 52°25' E 004°48'0 0.0
2015-Mar-23 15:33N 52°25' E 004°48'0 0.0
2015-Mar-23 14:33N 52°25' E 004°48'0 0.0
2015-Mar-23 13:33N 52°25' E 004°48'0 0.0
2015-Mar-23 12:33N 52°25' E 004°48'0 0.0
2015-Mar-23 11:33N 52°25' E 004°48'0 0.0
2015-Mar-23 10:33N 52°25' E 004°48'0 0.4
2015-Mar-23 09:33N 52°25' E 004°49'6 6.2
2015-Mar-23 08:33N 52°22' E 004°57'5 4.7
2015-Mar-23 07:32N 52°18' E 005°01'5 5.0
2015-Mar-23 06:34N 52°13' E 005°00'5 4.8
2015-Mar-23 05:34N 52°08' E 005°02'5 4.9
2015-Mar-23 04:34N 52°04' E 005°05'5 5.0
2015-Mar-23 03:33N 52°00' E 005°11'5 5.2
2015-Mar-23 02:34N 51°58' E 005°18'3 3.4
2015-Mar-23 01:34N 51°57' E 005°23'4 3.9
2015-Mar-23 00:34N 51°54' E 005°28'8 8.1
2015-Mar-22 23:33N 51°54' E 005°41'24 7.9
2015-Mar-22 20:29N 51°48' E 006°19'32 3.6
2015-Mar-22 11:32N 51°32' E 007°03'0 0.0
2015-Mar-22 10:33N 51°32' E 007°03'0 0.0
2015-Mar-22 09:27N 51°32' E 007°03'0 0.0
2015-Mar-22 08:32N 51°32' E 007°03'0 0.0
2015-Mar-22 07:33N 51°32' E 007°03'0 0.0
2015-Mar-22 06:33N 51°32' E 007°03'0 0.0
2015-Mar-22 05:33N 51°32' E 007°03'0 0.0
2015-Mar-22 04:34N 51°32' E 007°03'0 0.0
2015-Mar-22 03:33N 51°32' E 007°03'0 0.0
2015-Mar-22 02:33N 51°32' E 007°03'0 0.0
2015-Mar-22 01:34N 51°32' E 007°03'4 1.9
2015-Mar-21 23:33N 51°30' E 006°57'0 0.0
2015-Mar-21 22:33N 51°30' E 006°57'0 0.0
2015-Mar-21 21:34N 51°30' E 006°57'0 0.0
2015-Mar-21 20:34N 51°30' E 006°57'0 0.0
2015-Mar-21 19:33N 51°30' E 006°57'0 0.0
2015-Mar-21 18:34N 51°30' E 006°57'0 0.0
2015-Mar-21 17:33N 51°30' E 006°57'0 0.0
2015-Mar-21 16:33N 51°30' E 006°57'0 0.0
2015-Mar-21 15:33N 51°30' E 006°57'0 0.0
2015-Mar-21 14:34N 51°30' E 006°57'0 0.0
2015-Mar-21 13:34N 51°30' E 006°57'0 0.0
2015-Mar-21 12:33N 51°30' E 006°57'0 0.0
2015-Mar-21 11:34N 51°30' E 006°57'0 0.0
2015-Mar-21 10:34N 51°30' E 006°57'0 0.0
2015-Mar-21 09:34N 51°30' E 006°57'0 0.0
2015-Mar-21 08:34N 51°30' E 006°57'0 0.0
2015-Mar-21 07:33N 51°30' E 006°57'0 0.0
2015-Mar-21 06:33N 51°30' E 006°57'0 0.0
2015-Mar-21 05:34N 51°30' E 006°57'0 0.0
2015-Mar-21 04:34N 51°30' E 006°57'0 0.0
2015-Mar-21 03:33N 51°30' E 006°57'0 0.0
2015-Mar-21 02:33N 51°30' E 006°57'0 0.0
2015-Mar-21 01:33N 51°30' E 006°57'0 0.0
2015-Mar-21 00:33N 51°30' E 006°57'0 0.0
2015-Mar-20 23:33N 51°30' E 006°57'0 0.0
2015-Mar-20 22:34N 51°30' E 006°57'0 0.0
2015-Mar-20 21:34N 51°30' E 006°57'0 0.0
2015-Mar-20 20:33N 51°30' E 006°57'0 0.0
2015-Mar-20 19:34N 51°30' E 006°57'0 0.0
2015-Mar-20 18:33N 51°30' E 006°57'0 0.0
2015-Mar-20 17:34N 51°30' E 006°57'0 0.0
2015-Mar-20 16:34N 51°30' E 006°57'0 0.0
2015-Mar-20 15:34N 51°30' E 006°57'0 0.0
2015-Mar-20 14:34N 51°30' E 006°57'0 0.0
2015-Mar-20 13:33N 51°30' E 006°57'0 0.0
2015-Mar-20 12:34N 51°30' E 006°57'0 0.0
2015-Mar-20 11:33N 51°30' E 006°57'0 0.0
2015-Mar-20 10:33N 51°30' E 006°57'0 0.0
2015-Mar-20 09:33N 51°30' E 006°57'0 0.0
2015-Mar-20 08:34N 51°30' E 006°57'0 0.0
2015-Mar-20 07:33N 51°30' E 006°57'0 0.0
2015-Mar-20 06:32N 51°30' E 006°57'0 0.0
2015-Mar-20 05:33N 51°30' E 006°57'0 0.0
2015-Mar-20 04:33N 51°30' E 006°57'0 0.0
2015-Mar-20 03:33N 51°30' E 006°57'0 0.0
2015-Mar-20 02:33N 51°30' E 006°57'0 0.0
2015-Mar-20 01:33N 51°30' E 006°57'0 0.0
2015-Mar-20 00:33N 51°30' E 006°57'0 0.0
2015-Mar-19 23:33N 51°30' E 006°57'0 0.0
2015-Mar-19 22:33N 51°30' E 006°57'0 0.1
2015-Mar-19 21:32N 51°30' E 006°58'0 0.0
2015-Mar-19 20:34N 51°30' E 006°58'0 0.0
2015-Mar-19 19:32N 51°30' E 006°58'0 0.0
2015-Mar-19 17:24N 51°30' E 006°58'0 0.0
2015-Mar-19 15:27N 51°30' E 006°58'0 0.0
2015-Mar-19 13:12N 51°30' E 006°58'0 0.1
2015-Mar-19 11:32N 51°30' E 006°57'50 3.1
2015-Mar-18 19:26N 51°53' E 005°46'7 6.0
2015-Mar-18 18:18N 51°54' E 005°35'5 6.1
2015-Mar-18 17:33N 51°53' E 005°28'6 6.0
2015-Mar-18 16:33N 51°48' E 005°22'5 5.4
2015-Mar-18 15:33N 51°49' E 005°13'6 6.4
2015-Mar-18 14:33N 51°49' E 005°03'8 8.0
2015-Mar-18 13:34N 51°49' E 004°50'5 4.6
2015-Mar-18 12:33N 51°49' E 004°43'0 0.0
2015-Mar-18 11:34N 51°49' E 004°43'0 0.0
2015-Mar-18 10:33N 51°49' E 004°43'0 0.0
2015-Mar-18 09:33N 51°49' E 004°43'0 0.0
2015-Mar-18 08:33N 51°49' E 004°43'0 0.0
2015-Mar-18 07:33N 51°49' E 004°43'0 0.0
2015-Mar-18 06:34N 51°49' E 004°43'1 0.9
2015-Mar-18 05:34N 51°49' E 004°41'2 2.4
2015-Mar-18 04:33N 51°48' E 004°38'5 5.4
2015-Mar-18 03:32N 51°42' E 004°35'7 6.8
2015-Mar-18 02:32N 51°41' E 004°24'6 6.1
2015-Mar-18 01:33N 51°39' E 004°16'4 3.9
2015-Mar-18 00:29N 51°40' E 004°10'5 4.9
2015-Mar-17 23:32N 51°37' E 004°03'6 6.4
2015-Mar-17 22:34N 51°31' E 004°01'4 4.3
2015-Mar-17 21:33N 51°27' E 004°01'9 8.5
2015-Mar-17 20:33N 51°23' E 003°49'6 5.5
2015-Mar-17 19:33N 51°27' E 003°43'0 0.0
2015-Mar-17 18:33N 51°27' E 003°43'0 0.0
2015-Mar-17 17:33N 51°27' E 003°43'0 0.2
2015-Mar-17 16:34N 51°27' E 003°43'0 0.0
2015-Mar-17 15:33N 51°27' E 003°43'0 0.0
2015-Mar-17 14:33N 51°27' E 003°43'0 0.0
2015-Mar-17 13:34N 51°27' E 003°43'0 0.0
2015-Mar-17 12:34N 51°27' E 003°43'0 0.0
2015-Mar-17 11:33N 51°27' E 003°43'  

Dump ship's entire track history